Terminal Aerodrome Forecast
Issued by NWS

Home | Current Version | Previous Version | Text Only | Print | Product List | Glossary Off
Versions: 1 2 3 4 5 6 7 8 9 10 11 12 13 14 15 16 17 18 19 20 21 22 23 24 25 26 27 28 29 30 31

000
FTUS43 KTOP 230500
TAFMHK
TAF
KMHK 230520Z 2306/2406 13005KT P6SM OVC040
     FM230900 13005KT P6SM SHRA SCT015 OVC025
     FM231000 13006KT P6SM SHRA BKN015 OVC025
     FM231200 14009KT 6SM SHRA BR BKN008 OVC015
     FM231700 14011KT P6SM SHRA BKN015 OVC025
     FM232300 12009KT 4SM RA VCTS BKN007CB OVC025=

USA.gov is the U.S. government's official web portal to all federal, state and local government web resources and services.